Time;durP1;ratioP1;P1;durP2;ratioP2;P2;SDS_P1;SDS_P2;PMS_P1;PMS_P2;Temp;Humidity;BMP_temperature;BMP_pressure;BME280_temperature;BME280_humidity;BME280_pressure;Samples;Min_cycle;Max_cycle;Signal;HPM_P1;HPM_P2
2022/04/11 00:00:34;;;;;;;8.47;4.33;;;;;;;4.96;83.60;99900.52;123356;1098;104257;-77
2022/04/11 00:03:11;;;;;;;9.23;4.20;;;;;;;4.96;83.07;99893.61;123316;1098;104386;-76
2022/04/11 00:05:42;;;;;;;10.73;4.70;;;;;;;4.99;83.34;99895.47;123362;1098;104326;-75
2022/04/11 00:08:14;;;;;;;7.10;3.77;;;;;;;4.99;83.22;99900.67;123347;1097;105784;-77
2022/04/11 00:10:46;;;;;;;10.67;4.40;;;;;;;5.00;83.39;99911.16;123339;1098;104326;-77
2022/04/11 00:13:18;;;;;;;13.33;4.43;;;;;;;5.02;83.16;99898.22;123381;1099;104290;-76
2022/04/11 00:15:52;;;;;;;8.30;4.60;;;;;;;5.01;83.12;99896.43;123420;1099;104257;-76
2022/04/11 00:18:23;;;;;;;6.73;3.90;;;;;;;5.01;82.90;99892.11;123339;1099;104261;-76
2022/04/11 00:20:55;;;;;;;9.37;4.47;;;;;;;5.01;82.90;99889.51;123380;1099;104222;-76
2022/04/11 00:23:27;;;;;;;10.73;4.10;;;;;;;5.01;82.29;99881.70;123296;1097;104287;-76
2022/04/11 00:25:59;;;;;;;9.30;4.07;;;;;;;5.01;82.82;99886.91;123426;1097;104817;-75
2022/04/11 00:28:32;;;;;;;10.35;4.15;;;;;;;5.02;82.54;99887.82;123377;1099;104393;-76
2022/04/11 00:31:04;;;;;;;11.40;4.80;;;;;;;5.02;83.08;99888.70;123309;1097;104482;-76
2022/04/11 00:33:36;;;;;;;10.33;4.33;;;;;;;5.02;82.85;99886.10;123306;1099;104376;-76
2022/04/11 00:36:08;;;;;;;8.63;4.47;;;;;;;5.02;83.04;99886.10;123287;1098;104268;-76
2022/04/11 00:38:41;;;;;;;7.13;4.03;;;;;;;5.02;82.97;99891.30;123364;1099;104721;-75
2022/04/11 00:41:13;;;;;;;10.27;4.30;;;;;;;5.02;83.17;99924.23;123345;1097;104281;-76
2022/04/11 00:43:47;;;;;;;12.40;4.70;;;;;;;5.01;83.37;99894.70;123276;1099;104315;-76
2022/04/11 00:46:18;;;;;;;10.40;5.10;;;;;;;5.01;82.99;99902.51;123351;1097;104313;-76
2022/04/11 00:48:50;;;;;;;9.13;4.47;;;;;;;5.00;82.90;99898.15;123342;1099;104284;-77
2022/04/11 00:51:26;;;;;;;9.45;4.25;;;;;;;5.00;82.95;99900.75;123349;1099;104642;-76
2022/04/11 00:54:00;;;;;;;10.87;4.73;;;;;;;4.99;82.90;99896.36;123335;1099;104297;-75
2022/04/11 00:56:35;;;;;;;10.77;4.97;;;;;;;5.00;83.19;99884.23;123303;1099;104310;-76
2022/04/11 00:59:07;;;;;;;7.33;4.27;;;;;;;5.00;83.30;99898.15;123340;1098;104322;-76
2022/04/11 01:01:41;;;;;;;8.63;4.20;;;;;;;5.00;82.85;99892.95;123305;1099;104262;-75
2022/04/11 01:04:24;;;;;;;9.70;4.73;;;;;;;5.00;83.11;99887.75;123364;1098;104454;-76
2022/04/11 01:06:56;;;;;;;8.37;4.20;;;;;;;5.02;82.50;99901.70;123341;1099;104281;-76
2022/04/11 01:09:27;;;;;;;11.40;4.80;;;;;;;5.02;82.45;99899.11;123325;1098;104312;-76
2022/04/11 01:11:59;;;;;;;10.90;4.30;;;;;;;5.03;82.76;99910.39;123319;1099;104316;-76
2022/04/11 01:14:31;;;;;;;8.23;4.03;;;;;;;5.03;82.47;99911.30;123339;1099;104303;-76
2022/04/11 01:17:03;;;;;;;9.67;4.40;;;;;;;5.03;82.62;99902.59;123352;1099;104319;-75
2022/04/11 01:19:35;;;;;;;10.33;4.30;;;;;;;5.02;82.51;99893.91;123350;1099;104338;-75
2022/04/11 01:22:07;;;;;;;8.07;4.60;;;;;;;5.04;83.04;99909.58;123302;1098;104479;-75
2022/04/11 01:24:39;;;;;;;8.90;4.60;;;;;;;5.04;82.22;99901.78;123368;1097;104373;-76
2022/04/11 01:27:12;;;;;;;9.50;4.10;;;;;;;5.04;82.54;99912.18;123309;1098;104650;-76
2022/04/11 01:29:43;;;;;;;9.47;4.50;;;;;;;5.03;82.70;99910.39;123370;1099;104376;-75
2022/04/11 01:32:15;;;;;;;8.70;3.93;;;;;;;5.02;82.20;99912.11;123291;1098;104331;-76
2022/04/11 01:34:47;;;;;;;11.50;4.53;;;;;;;5.01;82.44;99907.71;123306;1099;104245;-76
2022/04/11 01:37:19;;;;;;;10.50;4.80;;;;;;;5.02;82.89;99917.31;123332;1098;104306;-78
2022/04/11 01:39:51;;;;;;;7.00;4.20;;;;;;;5.01;82.03;99907.71;123319;1099;104355;-75
2022/04/11 01:42:23;;;;;;;8.20;4.10;;;;;;;5.01;81.97;99910.31;123362;1099;104312;-77
2022/04/11 01:44:54;;;;;;;11.17;4.40;;;;;;;5.01;81.52;99907.71;123390;1099;104274;-75
2022/04/11 01:47:26;;;;;;;7.77;4.17;;;;;;;5.01;81.82;99915.52;123273;1099;104392;-77
2022/04/11 01:49:57;;;;;;;10.30;4.37;;;;;;;5.01;82.29;99919.83;123334;1098;104352;-76
2022/04/11 01:52:31;;;;;;;11.67;4.40;;;;;;;5.00;81.67;99925.84;123395;1099;104261;-75
2022/04/11 01:55:03;;;;;;;10.00;4.50;;;;;;;5.00;81.89;99944.95;123327;1099;104331;-76
2022/04/11 01:57:34;;;;;;;8.77;4.10;;;;;;;4.99;81.88;99953.56;123366;1099;104319;-76
2022/04/11 02:00:08;;;;;;;11.07;4.60;;;;;;;5.00;81.63;99955.36;123263;1099;104253;-76
2022/04/11 02:02:45;;;;;;;10.23;4.80;;;;;;;5.02;82.03;99971.03;123298;1099;104354;-76
2022/04/11 02:05:19;;;;;;;8.65;4.35;;;;;;;5.02;82.02;99974.52;123419;1099;104264;-76
2022/04/11 02:07:51;;;;;;;9.20;4.47;;;;;;;5.03;82.18;99973.71;123335;1098;104386;-75
2022/04/11 02:10:23;;;;;;;17.20;4.60;;;;;;;5.04;81.83;99975.47;123322;1099;104660;-76
2022/04/11 02:12:56;;;;;;;7.40;3.83;;;;;;;5.06;81.77;99992.87;123318;1099;104396;-76
2022/04/11 02:15:27;;;;;;;9.85;4.60;;;;;;;5.07;82.24;99984.27;123318;1099;104739;-75
2022/04/11 02:17:59;;;;;;;8.50;4.23;;;;;;;5.07;81.69;99987.75;123343;1099;104699;-76
2022/04/11 02:20:31;;;;;;;6.90;4.17;;;;;;;5.07;81.66;99987.75;123336;1099;104312;-77
2022/04/11 02:23:03;;;;;;;9.33;4.00;;;;;;;5.09;81.89;99993.02;123346;1099;104294;-77
2022/04/11 02:25:40;;;;;;;9.93;4.67;;;;;;;5.09;81.37;99996.50;123310;1098;104265;-76
2022/04/11 02:28:13;;;;;;;9.50;4.67;;;;;;;5.10;82.04;100000.91;123378;1098;104248;-76
2022/04/11 02:30:45;;;;;;;8.70;4.50;;;;;;;5.11;81.48;100001.78;123311;1097;104344;-75
2022/04/11 02:33:16;;;;;;;11.30;4.70;;;;;;;5.11;81.68;100012.19;123307;1097;104681;-76
2022/04/11 02:35:47;;;;;;;10.77;4.70;;;;;;;5.12;81.67;100017.47;123332;1099;104386;-76
2022/04/11 02:38:22;;;;;;;10.53;4.30;;;;;;;5.12;82.33;100022.66;123282;1097;104626;-75
2022/04/11 02:40:52;;;;;;;;;;;;;;;5.13;81.74;100020.98;123354;1099;104418;-76
2022/04/11 02:43:30;;;;;;;11.03;5.20;;;;;;;5.14;81.81;100020.14;123342;1099;104271;-76
2022/04/11 02:46:06;;;;;;;9.73;4.70;;;;;;;5.13;81.57;100013.18;123373;1098;104350;-75
2022/04/11 02:48:40;;;;;;;11.77;5.13;;;;;;;5.13;81.59;100007.97;123339;1099;104351;-76
2022/04/11 02:51:16;;;;;;;13.07;5.03;;;;;;;5.14;81.83;100013.25;123279;1099;104370;-76
2022/04/11 02:53:58;;;;;;;10.60;4.90;;;;;;;5.14;81.52;100020.14;123328;1097;104312;-76
2022/04/11 02:56:29;;;;;;;13.33;6.00;;;;;;;5.15;82.01;100028.02;123334;1099;104293;-76
2022/04/11 02:59:01;;;;;;;11.93;5.90;;;;;;;5.14;82.22;100023.66;123358;1099;104270;-75
2022/04/11 03:01:33;;;;;;;9.40;5.17;;;;;;;5.15;81.49;100028.02;123313;1099;104345;-76
2022/04/11 03:04:06;;;;;;;12.40;5.73;;;;;;;5.15;81.82;100025.42;123253;1099;104280;-75
2022/04/11 03:07:00;;;;;;;11.67;6.37;;;;;;;5.17;82.39;100030.70;123284;1099;104404;-75
2022/04/11 03:09:33;;;;;;;13.23;6.47;;;;;;;5.18;82.16;100037.70;123276;1099;104427;-77
2022/04/11 03:12:06;;;;;;;12.10;5.90;;;;;;;5.17;81.74;100046.30;123107;1099;104408;-76
2022/04/11 03:14:40;;;;;;;12.03;6.03;;;;;;;5.16;82.15;100047.14;123328;1099;104524;-75
2022/04/11 03:17:12;;;;;;;9.47;4.80;;;;;;;5.16;81.99;100050.63;123282;1102;104354;-76
2022/04/11 03:19:45;;;;;;;8.30;4.77;;;;;;;5.15;81.71;100043.63;123607;1099;104866;-75
2022/04/11 03:22:17;;;;;;;11.70;5.27;;;;;;;5.16;82.36;100049.75;123347;1099;104432;-75
2022/04/11 03:24:54;;;;;;;10.70;5.43;;;;;;;5.18;82.05;100058.50;123535;1099;104424;-75
2022/04/11 03:27:25;;;;;;;9.60;5.13;;;;;;;5.17;81.45;100056.70;123241;1101;104390;-75
2022/04/11 03:29:57;;;;;;;11.07;5.37;;;;;;;5.17;81.55;100057.63;123184;1102;104464;-75
2022/04/11 03:32:29;;;;;;;14.60;5.40;;;;;;;5.19;81.71;100066.39;123115;1100;104459;-75
2022/04/11 03:35:04;;;;;;;12.60;5.47;;;;;;;5.18;82.20;100069.80;123296;1102;104395;-75
2022/04/11 03:37:36;;;;;;;7.97;4.67;;;;;;;5.18;81.76;100059.39;123232;1099;104312;-76
2022/04/11 03:40:20;;;;;;;14.23;5.43;;;;;;;5.19;81.85;100058.58;123199;1099;104574;-75
2022/04/11 03:42:51;;;;;;;11.73;4.93;;;;;;;5.19;81.33;100050.78;123238;1099;104876;-76
2022/04/11 03:45:23;;;;;;;12.00;5.67;;;;;;;5.20;81.59;100049.06;123271;1099;104437;-75
2022/04/11 03:47:54;;;;;;;10.40;5.47;;;;;;;5.20;81.59;100043.86;123656;1099;104427;-75
2022/04/11 03:50:29;;;;;;;11.55;5.40;;;;;;;5.22;81.87;100037.92;123476;1099;104427;-76
2022/04/11 03:53:01;;;;;;;9.70;5.10;;;;;;;5.25;81.73;100046.69;123661;1099;104255;-76
2022/04/11 03:55:33;;;;;;;15.73;6.90;;;;;;;5.26;81.46;100041.56;123307;1099;104554;-77
2022/04/11 03:58:05;;;;;;;13.25;6.60;;;;;;;5.26;81.53;100051.97;123197;1102;104403;-77
2022/04/11 04:00:38;;;;;;;13.00;6.45;;;;;;;5.26;81.70;100057.17;123371;1098;104425;-76
2022/04/11 04:03:19;;;;;;;12.10;6.40;;;;;;;5.28;81.61;100062.45;123406;1097;104310;-77
2022/04/11 04:05:54;;;;;;;15.60;7.07;;;;;;;5.30;81.43;100066.01;124074;1097;118874;-74
2022/04/11 04:08:29;;;;;;;16.57;7.47;;;;;;;5.32;81.51;100075.69;123583;1099;104395;-74
2022/04/11 04:11:08;;;;;;;15.57;6.77;;;;;;;5.33;81.24;100093.09;123691;1099;104245;-74
2022/04/11 04:13:40;;;;;;;20.57;8.23;;;;;;;5.35;81.38;100088.85;123648;1099;104389;-75
2022/04/11 04:16:12;;;;;;;16.73;7.87;;;;;;;5.37;81.38;100095.02;123251;1099;104415;-75
2022/04/11 04:18:45;;;;;;;15.80;7.20;;;;;;;5.37;81.54;100101.94;123276;1099;104447;-76
2022/04/11 04:21:18;;;;;;;14.90;7.75;;;;;;;5.39;81.18;100108.09;123125;1099;104434;-75
2022/04/11 04:23:50;;;;;;;19.40;8.73;;;;;;;5.39;80.83;100118.51;123379;1099;104638;-76
2022/04/11 04:26:23;;;;;;;;;;;;;;;5.38;80.98;100106.34;123187;1099;112117;-76
2022/04/11 04:28:57;;;;;;;19.63;8.20;;;;;;;5.39;81.38;100118.51;123250;1099;104422;-74
2022/04/11 04:31:34;;;;;;;17.53;7.83;;;;;;;5.39;80.95;100126.31;123228;1099;104280;-76
2022/04/11 04:34:06;;;;;;;19.57;8.10;;;;;;;5.40;80.58;100125.51;123211;1102;104407;-74
2022/04/11 04:36:39;;;;;;;19.63;8.40;;;;;;;5.43;80.66;100122.18;123270;1099;104339;-75
2022/04/11 04:39:11;;;;;;;16.27;7.83;;;;;;;5.46;80.98;100123.22;123149;1099;104591;-75
2022/04/11 04:41:45;;;;;;;18.80;8.37;;;;;;;5.49;80.41;100133.78;123396;1099;104325;-75
2022/04/11 04:44:18;;;;;;;18.60;7.23;;;;;;;5.52;79.73;100133.05;123276;1099;104467;-75
2022/04/11 04:46:52;;;;;;;18.62;8.00;;;;;;;5.55;80.43;100126.28;123506;1099;107170;-76
2022/04/11 04:49:33;;;;;;;16.93;7.47;;;;;;;5.58;80.04;100129.03;123373;1098;104307;-75
2022/04/11 04:52:06;;;;;;;15.47;6.70;;;;;;;5.60;79.50;100131.72;123420;1097;104271;-75
2022/04/11 04:54:39;;;;;;;17.97;7.50;;;;;;;5.65;79.97;100134.55;123550;1099;104721;-74
2022/04/11 04:57:12;;;;;;;14.07;6.37;;;;;;;5.68;79.58;100127.77;123700;1099;104280;-74
2022/04/11 04:59:44;;;;;;;13.23;6.57;;;;;;;5.72;79.00;100134.05;123570;1097;104274;-74
2022/04/11 05:02:23;;;;;;;13.00;6.17;;;;;;;5.76;78.89;100129.06;123422;1099;104351;-76
2022/04/11 05:04:54;;;;;;;15.27;6.47;;;;;;;5.80;79.04;100134.39;123354;1099;104379;-76
2022/04/11 05:07:32;;;;;;;16.00;6.60;;;;;;;5.82;78.81;100128.45;123461;1099;104239;-75
2022/04/11 05:10:06;;;;;;;13.70;6.23;;;;;;;5.86;77.77;100126.88;123399;1099;104370;-76
2022/04/11 05:12:43;;;;;;;11.05;5.80;;;;;;;5.88;77.31;100128.75;123387;1099;104402;-76
2022/04/11 05:15:15;;;;;;;14.77;6.57;;;;;;;5.92;77.41;100128.09;123463;1099;104271;-75
2022/04/11 05:17:48;;;;;;;13.47;5.07;;;;;;;5.93;76.56;100132.45;123420;1097;104389;-74
2022/04/11 05:20:21;;;;;;;13.63;5.20;;;;;;;5.96;76.57;100129.12;123558;1099;104273;-76
2022/04/11 05:22:53;;;;;;;12.30;5.47;;;;;;;6.00;77.17;100123.28;124396;1099;104680;-74
2022/04/11 05:25:26;;;;;;;11.47;5.10;;;;;;;6.05;76.34;100136.53;123445;1099;104352;-75
2022/04/11 05:27:58;;;;;;;13.85;5.50;;;;;;;6.08;76.52;100124.53;123671;1099;104370;-74
2022/04/11 05:30:35;;;;;;;15.50;7.00;;;;;;;6.12;76.15;100125.56;123484;1096;104268;-74
2022/04/11 05:33:13;;;;;;;20.60;8.10;;;;;;;6.19;76.81;100132.86;123656;1099;104374;-75
2022/04/11 05:35:45;;;;;;;13.77;5.60;;;;;;;6.25;76.35;100138.36;123644;1096;104472;-74
2022/04/11 05:38:19;;;;;;;11.97;5.78;;;;;;;6.29;75.81;100139.39;123571;1099;104377;-75
2022/04/11 05:40:52;;;;;;;12.60;5.13;;;;;;;6.31;75.08;100142.98;123493;1098;104510;-74
2022/04/11 05:43:37;;;;;;;10.27;4.70;;;;;;;6.34;74.50;100130.06;123466;1099;104488;-76
2022/04/11 05:46:11;;;;;;;14.57;5.57;;;;;;;6.39;75.18;100139.02;123613;1097;104367;-77
2022/04/11 05:48:45;;;;;;;16.13;6.70;;;;;;;6.47;74.95;100141.97;123550;1098;104351;-77
2022/04/11 05:51:25;;;;;;;14.63;5.87;;;;;;;6.51;74.05;100143.00;123505;1099;104347;-76
2022/04/11 05:53:57;;;;;;;12.50;5.70;;;;;;;6.54;74.20;100143.14;123795;1099;104367;-75
2022/04/11 05:56:33;;;;;;;11.90;5.10;;;;;;;6.57;73.19;100143.28;124468;1099;104223;-76
2022/04/11 05:59:28;;;;;;;13.80;4.93;;;;;;;6.56;72.79;100144.09;123672;1099;104195;-77
2022/04/11 06:02:03;;;;;;;12.87;5.10;;;;;;;6.58;73.05;100143.35;123675;1099;104367;-75
2022/04/11 06:04:38;;;;;;;16.80;5.60;;;;;;;6.59;72.72;100139.94;124250;1098;104213;-76
2022/04/11 06:07:16;;;;;;;13.53;5.17;;;;;;;6.63;72.26;100143.56;123940;1099;104245;-76
2022/04/11 06:09:49;;;;;;;13.87;5.13;;;;;;;6.68;71.78;100141.17;124114;1099;104306;-76
2022/04/11 06:12:24;;;;;;;12.95;5.25;;;;;;;6.72;71.46;100143.98;124099;1099;104306;-77
2022/04/11 06:14:58;;;;;;;21.37;5.40;;;;;;;6.77;70.43;100158.11;123788;1099;104293;-76
2022/04/11 06:17:35;;;;;;;;;;;;;;;6.78;68.95;100140.77;123785;1099;104293;-76
2022/04/11 06:20:10;;;;;;;11.97;5.47;;;;;;;6.84;72.38;100144.55;124061;1098;104338;-76
2022/04/11 06:22:45;;;;;;;8.63;4.67;;;;;;;6.87;69.79;100145.48;123679;1099;104338;-76
2022/04/11 06:25:23;;;;;;;9.55;4.65;;;;;;;6.87;69.96;100148.98;123542;1099;104351;-76
2022/04/11 06:27:56;;;;;;;10.80;4.57;;;;;;;6.93;70.04;100158.81;123720;1099;104332;-76
2022/04/11 06:30:27;;;;;;;11.00;4.20;;;;;;;6.92;69.11;100151.80;123636;1099;104699;-76
2022/04/11 06:33:00;;;;;;;;;;;;;;;6.97;67.93;100150.31;123780;1098;104431;-76
2022/04/11 06:35:52;;;;;;;9.50;4.30;;;;;;;7.05;69.84;100148.92;123616;1099;104262;-75
2022/04/11 06:38:27;;;;;;;10.93;4.60;;;;;;;7.11;69.30;100167.45;123476;1099;104277;-77
2022/04/11 06:41:04;;;;;;;12.90;4.67;;;;;;;7.15;68.63;100163.25;123679;1099;104392;-77
2022/04/11 06:43:35;;;;;;;8.50;3.73;;;;;;;7.19;66.54;100157.36;123687;1099;104735;-76
2022/04/11 06:46:15;;;;;;;8.20;3.87;;;;;;;7.20;67.09;100162.64;124244;1099;104248;-76
2022/04/11 06:48:51;;;;;;;10.67;3.93;;;;;;;7.25;66.37;100161.97;124258;1099;104354;-76
2022/04/11 06:51:24;;;;;;;11.17;4.10;;;;;;;7.28;67.64;100151.66;123909;1099;104700;-76
2022/04/11 06:53:56;;;;;;;11.17;4.53;;;;;;;7.32;67.31;100153.55;123628;1097;104313;-77
2022/04/11 06:56:29;;;;;;;13.43;4.93;;;;;;;7.36;67.58;100163.31;123719;1096;104486;-77
2022/04/11 06:59:02;;;;;;;10.63;4.30;;;;;;;7.37;66.73;100176.44;123837;1099;104344;-76
2022/04/11 07:01:38;;;;;;;9.90;4.50;;;;;;;7.38;65.49;100175.58;123629;1099;104364;-76
2022/04/11 07:04:12;;;;;;;8.93;4.30;;;;;;;7.41;67.61;100169.61;123586;1099;104239;-75
2022/04/11 07:06:47;;;;;;;11.17;4.30;;;;;;;7.47;67.14;100169.88;123625;1099;104239;-76
2022/04/11 07:09:19;;;;;;;9.63;4.10;;;;;;;7.51;66.59;100171.80;123738;1098;104297;-77
2022/04/11 07:12:18;;;;;;;17.57;4.77;;;;;;;7.54;65.86;100181.47;123691;1099;104316;-75
2022/04/11 07:15:01;;;;;;;11.80;4.37;;;;;;;7.56;65.63;100185.94;123797;1099;104271;-77
2022/04/11 07:17:35;;;;;;;13.57;4.70;;;;;;;7.59;66.41;100173.83;123546;1099;104242;-76
2022/04/11 07:20:09;;;;;;;11.43;3.67;;;;;;;7.56;64.55;100165.05;123604;1099;104424;-75
2022/04/11 07:22:51;;;;;;;9.45;4.10;;;;;;;7.64;64.32;100182.77;123340;1099;104357;-76
2022/04/11 07:25:29;;;;;;;9.33;4.67;;;;;;;7.65;63.39;100175.00;123519;1096;104281;-76
2022/04/11 07:28:02;;;;;;;13.73;4.87;;;;;;;7.76;65.46;100167.62;123454;1099;104422;-78
2022/04/11 07:30:34;;;;;;;11.20;4.23;;;;;;;7.85;64.45;100173.23;123458;1099;104428;-77
2022/04/11 07:33:06;;;;;;;13.00;4.50;;;;;;;7.95;64.32;100155.28;123429;1098;104341;-75
2022/04/11 07:35:40;;;;;;;9.63;3.93;;;;;;;8.02;63.71;100163.44;123721;1099;104703;-76
2022/04/11 07:38:11;;;;;;;10.20;4.30;;;;;;;8.14;64.24;100155.21;123770;1098;104280;-76
2022/04/11 07:40:57;;;;;;;9.77;4.10;;;;;;;8.18;63.17;100146.67;123607;1098;104261;-76
2022/04/11 07:43:29;;;;;;;9.80;4.10;;;;;;;8.25;63.63;100156.52;123886;1099;104328;-75
2022/04/11 07:46:04;;;;;;;9.43;3.97;;;;;;;8.24;61.60;100154.76;123974;1099;104377;-76
2022/04/11 07:48:36;;;;;;;9.70;3.67;;;;;;;8.30;61.24;100163.66;123854;1098;104258;-76
2022/04/11 07:51:08;;;;;;;6.73;3.43;;;;;;;8.29;60.14;100170.62;123891;1098;104338;-75
2022/04/11 07:53:42;;;;;;;11.97;4.20;;;;;;;8.47;62.18;100170.47;123856;1099;104226;-76
2022/04/11 07:56:15;;;;;;;7.23;3.90;;;;;;;8.56;62.59;100183.91;123850;1099;104165;-76
2022/04/11 07:58:50;;;;;;;12.63;4.43;;;;;;;8.65;62.82;100185.99;123665;1098;105434;-76
2022/04/11 08:01:24;;;;;;;11.87;4.23;;;;;;;8.66;61.67;100192.11;123803;1099;105120;-76
2022/04/11 08:03:56;;;;;;;10.37;4.30;;;;;;;8.70;62.41;100196.63;123635;1099;104274;-76
2022/04/11 08:06:30;;;;;;;11.23;3.83;;;;;;;8.79;61.18;100195.25;123727;1099;104272;-77
2022/04/11 08:09:00;;;;;;;;;;;;;;;8.78;60.80;100177.76;123576;1099;104724;-76
2022/04/11 08:11:34;;;;;;;9.20;4.33;;;;;;;8.84;61.98;100190.19;123685;1096;104373;-75
2022/04/11 08:14:08;;;;;;;12.17;4.53;;;;;;;8.89;62.14;100187.75;123739;1099;104275;-76
2022/04/11 08:16:41;;;;;;;9.20;3.85;;;;;;;8.88;61.52;100210.42;123812;1097;104861;-76
2022/04/11 08:19:23;;;;;;;11.40;4.20;;;;;;;8.89;61.78;100195.59;123877;1099;104332;-77
2022/04/11 08:21:59;;;;;;;11.57;3.63;;;;;;;8.86;60.40;100193.75;124187;1099;104310;-76
2022/04/11 08:24:32;;;;;;;12.80;4.23;;;;;;;8.94;61.13;100199.27;124054;1099;104442;-76
2022/04/11 08:27:05;;;;;;;15.60;4.50;;;;;;;8.94;61.52;100189.72;124437;1099;104178;-75
2022/04/11 08:29:43;;;;;;;12.20;3.80;;;;;;;9.02;61.57;100183.85;123918;1099;105547;-74
2022/04/11 08:32:18;;;;;;;11.30;3.90;;;;;;;9.05;60.20;100190.08;123951;1099;104220;-75
2022/04/11 08:34:50;;;;;;;16.90;4.43;;;;;;;9.17;60.92;100187.03;124005;1099;104297;-77
2022/04/11 08:37:24;;;;;;;14.23;3.80;;;;;;;9.24;59.60;100183.81;123599;1099;104248;-77
2022/04/11 08:39:59;;;;;;;8.60;3.63;;;;;;;9.28;57.73;100187.42;123481;1099;104868;-76
2022/04/11 08:42:33;;;;;;;11.60;3.40;;;;;;;9.25;56.35;100197.78;123437;1099;104367;-76
2022/04/11 08:45:19;;;;;;;9.63;3.50;;;;;;;9.28;58.40;100206.63;123717;1098;104325;-77
2022/04/11 08:47:53;;;;;;;7.20;3.40;;;;;;;9.37;58.41;100185.13;123835;1099;104248;-77
2022/04/11 08:50:25;;;;;;;;;;;;;;;9.41;55.52;100189.66;123992;1099;104283;-77
2022/04/11 08:52:58;;;;;;;8.47;3.43;;;;;;;9.48;56.79;100180.27;123767;1099;104264;-76
2022/04/11 08:55:30;;;;;;;10.45;3.60;;;;;;;9.53;56.88;100187.44;123833;1099;104312;-76
2022/04/11 08:58:02;;;;;;;8.63;3.47;;;;;;;9.64;55.37;100179.95;123626;1099;104258;-76
2022/04/11 09:00:34;;;;;;;7.20;3.37;;;;;;;9.67;54.71;100166.95;123569;1099;104274;-76
2022/04/11 09:03:08;;;;;;;7.07;3.10;;;;;;;9.75;54.83;100182.05;123496;1099;104268;-76
2022/04/11 09:05:41;;;;;;;10.53;3.67;;;;;;;9.77;54.97;100185.61;123538;1098;104258;-76
2022/04/11 09:08:15;;;;;;;10.03;3.72;;;;;;;9.87;54.45;100191.21;123754;1097;104262;-76
2022/04/11 09:10:46;;;;;;;10.83;3.53;;;;;;;9.92;53.92;100165.16;123650;1098;104310;-73
2022/04/11 09:13:21;;;;;;;10.13;3.77;;;;;;;10.02;55.17;100179.45;124095;1099;104230;-74
2022/04/11 09:15:57;;;;;;;7.70;3.63;;;;;;;10.13;53.67;100195.53;123940;1098;104375;-74
2022/04/11 09:18:49;;;;;;;13.05;3.65;;;;;;;10.16;53.62;100175.56;123483;1098;104233;-76
2022/04/11 09:21:22;;;;;;;6.75;3.45;;;;;;;10.22;52.08;100166.98;123654;1096;104312;-75
2022/04/11 09:24:19;;;;;;;8.73;3.58;;;;;;;10.40;54.13;100157.11;123820;1099;104245;-77
2022/04/11 09:26:55;;;;;;;8.33;3.60;;;;;;;10.60;53.84;100151.59;124026;1098;104463;-74
2022/04/11 09:29:34;;;;;;;9.10;3.70;;;;;;;10.71;53.78;100170.28;123719;1099;105838;-75
2022/04/11 09:32:10;;;;;;;11.60;3.80;;;;;;;10.70;54.72;100150.12;123477;1099;104425;-74
2022/04/11 09:34:53;;;;;;;7.47;3.30;;;;;;;10.69;51.84;100150.95;123584;1099;104387;-77
2022/04/11 09:37:25;;;;;;;11.63;3.97;;;;;;;10.77;52.05;100155.59;123224;1099;104393;-76
2022/04/11 09:39:59;;;;;;;8.53;3.53;;;;;;;10.74;52.38;100158.13;123640;1098;104718;-75
2022/04/11 09:42:34;;;;;;;8.03;3.33;;;;;;;10.67;51.90;100168.40;123565;1099;104268;-76
2022/04/11 09:45:17;;;;;;;10.27;3.53;;;;;;;10.71;52.42;100152.79;123433;1099;104692;-76
2022/04/11 09:48:05;;;;;;;15.03;3.40;;;;;;;10.77;49.72;100160.84;123457;1097;104383;-75
2022/04/11 09:50:52;;;;;;;8.60;3.40;;;;;;;10.86;50.63;100160.23;123830;1098;104310;-75
2022/04/11 09:53:38;;;;;;;8.20;3.27;;;;;;;10.79;50.17;100174.89;123723;1097;104226;-76
2022/04/11 09:56:13;;;;;;;8.30;3.20;;;;;;;10.96;52.17;100161.38;123902;1099;104208;-76
2022/04/11 09:58:45;;;;;;;9.95;3.20;;;;;;;11.03;49.85;100179.10;123690;1096;104225;-75
2022/04/11 10:01:18;;;;;;;8.37;3.47;;;;;;;11.00;50.12;100167.59;123983;1098;104348;-76
2022/04/11 10:03:51;;;;;;;7.75;3.55;;;;;;;11.22;51.94;100166.45;124264;1099;111640;-75
2022/04/11 10:06:23;;;;;;;8.80;4.03;;;;;;;11.33;51.55;100168.55;124413;1099;104303;-75
2022/04/11 10:08:57;;;;;;;13.60;3.87;;;;;;;11.26;48.67;100186.72;124514;1099;104348;-76
2022/04/11 10:11:33;;;;;;;16.77;4.47;;;;;;;11.24;49.79;100198.94;124387;1099;104192;-76
2022/04/11 10:14:11;;;;;;;10.47;3.50;;;;;;;11.22;50.95;100191.02;124699;1097;104229;-76
2022/04/11 10:16:48;;;;;;;11.27;3.60;;;;;;;11.21;50.44;100189.22;124329;1099;104258;-76
2022/04/11 10:19:25;;;;;;;6.97;3.80;;;;;;;11.24;49.98;100214.69;124647;1099;104246;-75
2022/04/11 10:22:02;;;;;;;8.10;3.47;;;;;;;11.15;48.24;100205.68;124281;1098;104293;-76
2022/04/11 10:24:41;;;;;;;5.53;3.57;;;;;;;11.17;48.86;100223.23;124268;1099;104411;-76
2022/04/11 10:27:25;;;;;;;8.53;3.60;;;;;;;11.15;50.52;100208.30;124471;1099;104498;-76
2022/04/11 10:30:02;;;;;;;10.95;3.77;;;;;;;11.10;50.08;100211.67;125377;1099;104380;-76
2022/04/11 10:32:53;;;;;;;8.57;3.80;;;;;;;11.13;50.14;100212.64;123900;1099;104434;-76
2022/04/11 10:35:41;;;;;;;10.50;4.67;;;;;;;11.16;50.12;100196.09;123905;1099;104338;-75
2022/04/11 10:41:21;;;;;;;14.13;4.90;;;;;;;11.02;48.75;100213.19;123772;1099;104300;-75
2022/04/11 10:44:31;;;;;;;10.67;3.73;;;;;;;10.82;47.44;100204.72;123756;1099;104408;-76
2022/04/11 10:47:38;;;;;;;11.57;4.00;;;;;;;10.81;49.13;100223.92;123643;1099;104253;-75
2022/04/11 10:50:24;;;;;;;10.53;3.80;;;;;;;10.77;49.12;100218.58;123793;1102;104281;-75
2022/04/11 10:53:07;;;;;;;10.30;4.37;;;;;;;10.89;49.82;100222.41;123898;1099;104498;-76
2022/04/11 10:55:56;;;;;;;5.43;3.47;;;;;;;10.93;47.33;100221.67;124201;1098;104278;-75
2022/04/11 10:58:45;;;;;;;9.20;3.47;;;;;;;11.05;48.30;100219.41;124219;1099;104310;-76
2022/04/11 11:02:05;;;;;;;10.83;3.70;;;;;;;11.12;46.95;100242.36;124026;1098;104342;-76
2022/04/11 11:04:47;;;;;;;11.03;3.67;;;;;;;11.17;46.54;100228.48;123636;1099;105529;-76
2022/04/11 11:07:29;;;;;;;9.10;3.77;;;;;;;11.21;46.22;100257.50;123607;1099;104562;-76
2022/04/11 11:10:03;;;;;;;9.00;3.70;;;;;;;11.25;46.14;100232.20;123393;1099;104287;-76
2022/04/11 11:12:38;;;;;;;8.33;3.50;;;;;;;11.26;45.69;100213.86;123382;1099;104454;-76
2022/04/11 11:15:34;;;;;;;7.63;3.23;;;;;;;11.25;43.72;100222.61;123674;1099;104453;-78
2022/04/11 11:18:06;;;;;;;8.47;3.50;;;;;;;11.32;44.97;100210.53;123265;1099;104521;-76
2022/04/11 11:20:52;;;;;;;9.33;3.10;;;;;;;11.30;44.77;100213.11;123812;1099;104389;-76
2022/04/11 11:23:34;;;;;;;8.77;3.00;;;;;;;11.19;43.06;100234.66;123742;1099;104355;-77
2022/04/11 11:26:15;;;;;;;8.23;3.40;;;;;;;11.24;45.66;100210.31;124105;1099;104521;-77
2022/04/11 11:28:48;;;;;;;9.77;3.40;;;;;;;11.39;44.94;100215.12;124163;1099;104335;-75
2022/04/11 11:31:21;;;;;;;9.18;3.47;;;;;;;11.30;42.03;100222.75;123848;1099;104533;-76
2022/04/11 11:33:57;;;;;;;11.10;3.43;;;;;;;11.30;43.02;100228.00;123971;1099;104399;-76
2022/04/11 11:36:32;;;;;;;7.60;3.37;;;;;;;11.27;43.59;100210.41;123711;1099;104402;-77
2022/04/11 11:39:14;;;;;;;7.07;3.23;;;;;;;11.36;43.96;100203.62;123723;1098;104271;-78
2022/04/11 11:41:47;;;;;;;9.47;3.40;;;;;;;11.51;43.61;100198.78;123828;1097;104299;-76
2022/04/11 11:44:19;;;;;;;9.00;3.63;;;;;;;11.58;43.36;100223.52;124067;1098;102611;-77
2022/04/11 11:46:55;;;;;;;10.23;3.20;;;;;;;11.51;42.96;100198.78;123906;1099;104344;-76
2022/04/11 11:49:38;;;;;;;3.80;2.53;;;;;;;11.52;41.99;100197.95;124007;1099;104275;-75
2022/04/11 11:52:20;;;;;;;8.40;3.30;;;;;;;11.65;43.36;100192.16;124015;1099;104634;-76
2022/04/11 11:55:00;;;;;;;7.80;3.30;;;;;;;11.67;41.39;100189.56;123906;1099;104361;-79